sensor_id;sensor_type;location;lat;lon;timestamp;temperature;humidity
24636;DHT22;12772;49.794;10.024;2023-01-15T00:01:32;11.70;64.80
24636;DHT22;12772;49.794;10.024;2023-01-15T00:05:35;11.60;64.80
24636;DHT22;12772;49.794;10.024;2023-01-15T00:09:37;11.20;64.50
24636;DHT22;12772;49.794;10.024;2023-01-15T00:13:40;11.70;64.80
24636;DHT22;12772;49.794;10.024;2023-01-15T00:17:42;11.40;64.40
24636;DHT22;12772;49.794;10.024;2023-01-15T00:21:44;11.40;64.40
24636;DHT22;12772;49.794;10.024;2023-01-15T00:25:46;11.80;64.50
24636;DHT22;12772;49.794;10.024;2023-01-15T00:30:08;11.50;64.10
24636;DHT22;12772;49.794;10.024;2023-01-15T00:34:10;12.20;64.60
24636;DHT22;12772;49.794;10.024;2023-01-15T00:38:12;11.50;63.80
24636;DHT22;12772;49.794;10.024;2023-01-15T00:42:16;12.00;64.10
24636;DHT22;12772;49.794;10.024;2023-01-15T00:46:18;12.00;64.00
24636;DHT22;12772;49.794;10.024;2023-01-15T00:50:20;11.60;63.90
24636;DHT22;12772;49.794;10.024;2023-01-15T00:54:22;12.10;64.30
24636;DHT22;12772;49.794;10.024;2023-01-15T00:58:24;12.10;64.40
24636;DHT22;12772;49.794;10.024;2023-01-15T01:02:26;12.10;64.60
24636;DHT22;12772;49.794;10.024;2023-01-15T01:06:28;12.10;64.70
24636;DHT22;12772;49.794;10.024;2023-01-15T01:10:30;11.70;64.60
24636;DHT22;12772;49.794;10.024;2023-01-15T01:14:32;11.80;64.80
24636;DHT22;12772;49.794;10.024;2023-01-15T01:18:35;11.70;64.90
24636;DHT22;12772;49.794;10.024;2023-01-15T01:22:37;11.70;65.20
24636;DHT22;12772;49.794;10.024;2023-01-15T01:26:39;12.10;65.60
24636;DHT22;12772;49.794;10.024;2023-01-15T01:30:41;12.20;65.80
24636;DHT22;12772;49.794;10.024;2023-01-15T01:34:43;11.80;65.60
24636;DHT22;12772;49.794;10.024;2023-01-15T01:38:48;11.90;65.80
24636;DHT22;12772;49.794;10.024;2023-01-15T01:42:50;11.80;65.70
24636;DHT22;12772;49.794;10.024;2023-01-15T01:46:52;11.70;65.80
24636;DHT22;12772;49.794;10.024;2023-01-15T01:50:56;11.80;66.20
24636;DHT22;12772;49.794;10.024;2023-01-15T01:55:00;12.00;66.50
24636;DHT22;12772;49.794;10.024;2023-01-15T01:59:04;11.90;66.60
24636;DHT22;12772;49.794;10.024;2023-01-15T02:03:08;11.60;66.40
24636;DHT22;12772;49.794;10.024;2023-01-15T02:07:11;12.00;67.00
24636;DHT22;12772;49.794;10.024;2023-01-15T02:11:16;11.80;67.20
24636;DHT22;12772;49.794;10.024;2023-01-15T02:15:34;11.80;67.60
24636;DHT22;12772;49.794;10.024;2023-01-15T02:24:00;12.00;68.20
24636;DHT22;12772;49.794;10.024;2023-01-15T02:28:22;12.00;68.20
24636;DHT22;12772;49.794;10.024;2023-01-15T02:32:31;11.70;68.70
24636;DHT22;12772;49.794;10.024;2023-01-15T02:36:38;11.70;69.10
24636;DHT22;12772;49.794;10.024;2023-01-15T02:40:41;11.50;69.30
24636;DHT22;12772;49.794;10.024;2023-01-15T02:44:48;11.90;70.00
24636;DHT22;12772;49.794;10.024;2023-01-15T02:48:52;11.60;69.90
24636;DHT22;12772;49.794;10.024;2023-01-15T02:52:59;11.50;70.10
24636;DHT22;12772;49.794;10.024;2023-01-15T02:57:04;11.90;70.80
24636;DHT22;12772;49.794;10.024;2023-01-15T03:01:10;11.70;70.90
24636;DHT22;12772;49.794;10.024;2023-01-15T03:05:27;11.40;70.70
24636;DHT22;12772;49.794;10.024;2023-01-15T03:09:32;11.80;71.50
24636;DHT22;12772;49.794;10.024;2023-01-15T03:13:58;11.60;71.50
24636;DHT22;12772;49.794;10.024;2023-01-15T03:18:02;11.80;71.90
24636;DHT22;12772;49.794;10.024;2023-01-15T03:26:19;11.80;72.40
24636;DHT22;12772;49.794;10.024;2023-01-15T03:30:22;11.80;72.40
24636;DHT22;12772;49.794;10.024;2023-01-15T03:34:26;11.60;72.30
24636;DHT22;12772;49.794;10.024;2023-01-15T03:38:32;11.80;72.40
24636;DHT22;12772;49.794;10.024;2023-01-15T03:42:47;11.50;72.30
24636;DHT22;12772;49.794;10.024;2023-01-15T03:47:28;11.80;72.60
24636;DHT22;12772;49.794;10.024;2023-01-15T03:56:10;11.90;72.40
24636;DHT22;12772;49.794;10.024;2023-01-15T04:00:21;11.40;72.10
24636;DHT22;12772;49.794;10.024;2023-01-15T04:04:26;11.90;72.80
24636;DHT22;12772;49.794;10.024;2023-01-15T04:08:33;11.90;73.10
24636;DHT22;12772;49.794;10.024;2023-01-15T04:12:36;11.40;72.80
24636;DHT22;12772;49.794;10.024;2023-01-15T04:16:38;11.70;73.00
24636;DHT22;12772;49.794;10.024;2023-01-15T04:20:40;11.50;72.90
24636;DHT22;12772;49.794;10.024;2023-01-15T04:24:42;11.60;73.10
24636;DHT22;12772;49.794;10.024;2023-01-15T04:28:44;11.60;73.10
24636;DHT22;12772;49.794;10.024;2023-01-15T04:32:49;11.60;73.00
24636;DHT22;12772;49.794;10.024;2023-01-15T04:36:51;12.00;72.30
24636;DHT22;12772;49.794;10.024;2023-01-15T04:40:53;11.60;70.70
24636;DHT22;12772;49.794;10.024;2023-01-15T04:45:13;11.50;69.80
24636;DHT22;12772;49.794;10.024;2023-01-15T04:49:16;11.70;69.60
24636;DHT22;12772;49.794;10.024;2023-01-15T04:53:18;11.40;68.20
24636;DHT22;12772;49.794;10.024;2023-01-15T04:57:20;11.10;67.20
24636;DHT22;12772;49.794;10.024;2023-01-15T05:01:22;11.40;66.90
24636;DHT22;12772;49.794;10.024;2023-01-15T05:05:24;11.30;66.70
24636;DHT22;12772;49.794;10.024;2023-01-15T05:09:26;11.20;66.30
24636;DHT22;12772;49.794;10.024;2023-01-15T05:13:29;10.90;66.10
24636;DHT22;12772;49.794;10.024;2023-01-15T05:17:33;11.10;66.30
24636;DHT22;12772;49.794;10.024;2023-01-15T05:21:39;10.80;66.00
24636;DHT22;12772;49.794;10.024;2023-01-15T05:25:41;10.70;65.70
24636;DHT22;12772;49.794;10.024;2023-01-15T05:29:43;10.60;65.20
24636;DHT22;12772;49.794;10.024;2023-01-15T05:33:46;10.30;65.00
24636;DHT22;12772;49.794;10.024;2023-01-15T05:37:48;10.70;65.50
24636;DHT22;12772;49.794;10.024;2023-01-15T05:41:50;10.50;64.40
24636;DHT22;12772;49.794;10.024;2023-01-15T05:45:53;10.30;64.00
24636;DHT22;12772;49.794;10.024;2023-01-15T05:49:55;10.40;64.30
24636;DHT22;12772;49.794;10.024;2023-01-15T05:53:57;9.90;64.90
24636;DHT22;12772;49.794;10.024;2023-01-15T05:57:59;10.00;64.20
24636;DHT22;12772;49.794;10.024;2023-01-15T06:02:01;9.80;64.50
24636;DHT22;12772;49.794;10.024;2023-01-15T06:06:04;9.80;64.30
24636;DHT22;12772;49.794;10.024;2023-01-15T06:10:06;9.80;64.00
24636;DHT22;12772;49.794;10.024;2023-01-15T06:14:10;10.20;63.40
24636;DHT22;12772;49.794;10.024;2023-01-15T06:18:13;9.80;63.30
24636;DHT22;12772;49.794;10.024;2023-01-15T06:22:15;9.90;62.70
24636;DHT22;12772;49.794;10.024;2023-01-15T06:26:18;10.00;62.00
24636;DHT22;12772;49.794;10.024;2023-01-15T06:30:20;9.30;62.70
24636;DHT22;12772;49.794;10.024;2023-01-15T06:34:22;9.70;63.00
24636;DHT22;12772;49.794;10.024;2023-01-15T06:38:24;9.50;62.30
24636;DHT22;12772;49.794;10.024;2023-01-15T06:42:26;9.30;62.30
24636;DHT22;12772;49.794;10.024;2023-01-15T06:46:57;9.20;62.00
24636;DHT22;12772;49.794;10.024;2023-01-15T06:51:17;8.90;61.90
24636;DHT22;12772;49.794;10.024;2023-01-15T06:55:21;9.30;62.10
24636;DHT22;12772;49.794;10.024;2023-01-15T06:59:23;9.40;62.40
24636;DHT22;12772;49.794;10.024;2023-01-15T07:03:26;9.00;61.50
24636;DHT22;12772;49.794;10.024;2023-01-15T07:07:28;9.00;61.60
24636;DHT22;12772;49.794;10.024;2023-01-15T07:11:30;9.30;61.50
24636;DHT22;12772;49.794;10.024;2023-01-15T07:15:32;8.90;61.30
24636;DHT22;12772;49.794;10.024;2023-01-15T07:19:36;8.80;61.30
24636;DHT22;12772;49.794;10.024;2023-01-15T07:23:38;8.60;61.20
24636;DHT22;12772;49.794;10.024;2023-01-15T07:27:40;9.10;61.80
24636;DHT22;12772;49.794;10.024;2023-01-15T07:31:42;8.70;61.30
24636;DHT22;12772;49.794;10.024;2023-01-15T07:35:44;8.90;61.40
24636;DHT22;12772;49.794;10.024;2023-01-15T07:39:46;8.50;61.30
24636;DHT22;12772;49.794;10.024;2023-01-15T07:43:48;8.50;61.40
24636;DHT22;12772;49.794;10.024;2023-01-15T07:48:08;8.70;61.30
24636;DHT22;12772;49.794;10.024;2023-01-15T07:52:28;8.60;61.50
24636;DHT22;12772;49.794;10.024;2023-01-15T07:56:30;8.50;61.20
24636;DHT22;12772;49.794;10.024;2023-01-15T08:00:33;8.60;61.40
24636;DHT22;12772;49.794;10.024;2023-01-15T08:04:35;8.60;61.30
24636;DHT22;12772;49.794;10.024;2023-01-15T08:08:37;8.50;61.50
24636;DHT22;12772;49.794;10.024;2023-01-15T08:12:39;8.20;61.40
24636;DHT22;12772;49.794;10.024;2023-01-15T08:16:58;8.30;61.70
24636;DHT22;12772;49.794;10.024;2023-01-15T08:21:00;8.40;61.70
24636;DHT22;12772;49.794;10.024;2023-01-15T08:25:03;8.50;62.10
24636;DHT22;12772;49.794;10.024;2023-01-15T08:29:05;8.40;62.40
24636;DHT22;12772;49.794;10.024;2023-01-15T08:33:07;7.80;61.60
24636;DHT22;12772;49.794;10.024;2023-01-15T08:37:09;8.20;61.70
24636;DHT22;12772;49.794;10.024;2023-01-15T08:41:11;8.20;61.60
24636;DHT22;12772;49.794;10.024;2023-01-15T08:45:13;7.80;61.40
24636;DHT22;12772;49.794;10.024;2023-01-15T08:49:16;8.10;61.80
24636;DHT22;12772;49.794;10.024;2023-01-15T08:53:19;7.80;61.50
24636;DHT22;12772;49.794;10.024;2023-01-15T08:57:21;8.10;61.80
24636;DHT22;12772;49.794;10.024;2023-01-15T09:01:23;8.20;61.70
24636;DHT22;12772;49.794;10.024;2023-01-15T09:05:25;8.10;61.80
24636;DHT22;12772;49.794;10.024;2023-01-15T09:09:28;8.10;61.80
24636;DHT22;12772;49.794;10.024;2023-01-15T09:13:31;8.00;61.70
24636;DHT22;12772;49.794;10.024;2023-01-15T09:17:33;8.00;61.70
24636;DHT22;12772;49.794;10.024;2023-01-15T09:21:40;7.90;61.60
24636;DHT22;12772;49.794;10.024;2023-01-15T09:25:58;8.10;61.80
24636;DHT22;12772;49.794;10.024;2023-01-15T09:30:01;8.00;61.80
24636;DHT22;12772;49.794;10.024;2023-01-15T09:34:04;7.90;61.60
24636;DHT22;12772;49.794;10.024;2023-01-15T09:38:06;8.00;62.00
24636;DHT22;12772;49.794;10.024;2023-01-15T09:42:21;7.60;61.70
24636;DHT22;12772;49.794;10.024;2023-01-15T09:46:38;8.00;62.00
24636;DHT22;12772;49.794;10.024;2023-01-15T09:54:56;7.70;61.50
24636;DHT22;12772;49.794;10.024;2023-01-15T09:59:05;7.60;61.60
24636;DHT22;12772;49.794;10.024;2023-01-15T10:03:39;7.80;61.90
24636;DHT22;12772;49.794;10.024;2023-01-15T10:07:53;8.20;62.20
24636;DHT22;12772;49.794;10.024;2023-01-15T10:12:06;8.20;62.40
24636;DHT22;12772;49.794;10.024;2023-01-15T10:16:31;8.20;62.30
24636;DHT22;12772;49.794;10.024;2023-01-15T10:20:48;8.20;62.20
24636;DHT22;12772;49.794;10.024;2023-01-15T10:24:56;8.20;62.00
24636;DHT22;12772;49.794;10.024;2023-01-15T10:29:22;8.10;62.00
24636;DHT22;12772;49.794;10.024;2023-01-15T10:33:47;8.10;62.10
24636;DHT22;12772;49.794;10.024;2023-01-15T10:38:08;8.20;62.20
24636;DHT22;12772;49.794;10.024;2023-01-15T10:46:36;8.10;62.40
24636;DHT22;12772;49.794;10.024;2023-01-15T10:50:40;8.10;62.50
24636;DHT22;12772;49.794;10.024;2023-01-15T10:54:58;7.90;62.40
24636;DHT22;12772;49.794;10.024;2023-01-15T10:59:24;7.80;62.20
24636;DHT22;12772;49.794;10.024;2023-01-15T11:03:36;8.30;62.40
24636;DHT22;12772;49.794;10.024;2023-01-15T11:07:48;8.20;62.30
24636;DHT22;12772;49.794;10.024;2023-01-15T11:11:52;8.30;62.30
24636;DHT22;12772;49.794;10.024;2023-01-15T11:16:20;8.30;62.10
24636;DHT22;12772;49.794;10.024;2023-01-15T11:20:44;8.10;62.20
24636;DHT22;12772;49.794;10.024;2023-01-15T11:24:52;8.20;62.00
24636;DHT22;12772;49.794;10.024;2023-01-15T11:28:56;8.30;62.10
24636;DHT22;12772;49.794;10.024;2023-01-15T11:33:01;8.10;61.70
24636;DHT22;12772;49.794;10.024;2023-01-15T11:37:04;7.90;61.00
24636;DHT22;12772;49.794;10.024;2023-01-15T11:45:21;7.60;61.40
24636;DHT22;12772;49.794;10.024;2023-01-15T11:49:51;7.60;61.40
24636;DHT22;12772;49.794;10.024;2023-01-15T11:54:13;7.50;61.30
24636;DHT22;12772;49.794;10.024;2023-01-15T11:58:16;7.40;61.10
24636;DHT22;12772;49.794;10.024;2023-01-15T12:02:26;7.00;61.00
24636;DHT22;12772;49.794;10.024;2023-01-15T12:06:33;7.30;61.20
24636;DHT22;12772;49.794;10.024;2023-01-15T12:10:46;7.50;61.30
24636;DHT22;12772;49.794;10.024;2023-01-15T12:15:32;7.50;61.60
24636;DHT22;12772;49.794;10.024;2023-01-15T12:28:36;7.60;61.30
24636;DHT22;12772;49.794;10.024;2023-01-15T12:32:43;7.60;61.40
24636;DHT22;12772;49.794;10.024;2023-01-15T12:36:59;7.70;61.50
24636;DHT22;12772;49.794;10.024;2023-01-15T12:41:35;7.70;61.20
24636;DHT22;12772;49.794;10.024;2023-01-15T12:45:57;7.90;61.40
24636;DHT22;12772;49.794;10.024;2023-01-15T12:54:12;7.70;60.90
24636;DHT22;12772;49.794;10.024;2023-01-15T12:58:44;7.60;60.90
24636;DHT22;12772;49.794;10.024;2023-01-15T13:02:56;7.60;61.10
24636;DHT22;12772;49.794;10.024;2023-01-15T13:07:05;7.70;61.00
24636;DHT22;12772;49.794;10.024;2023-01-15T13:11:12;7.50;60.90
24636;DHT22;12772;49.794;10.024;2023-01-15T13:15:16;7.00;60.90
24636;DHT22;12772;49.794;10.024;2023-01-15T13:32:48;7.60;61.90
24636;DHT22;12772;49.794;10.024;2023-01-15T13:36:45;7.50;61.70
24636;DHT22;12772;49.794;10.024;2023-01-15T13:40:49;7.40;61.70
24636;DHT22;12772;49.794;10.024;2023-01-15T13:44:53;7.40;61.30
24636;DHT22;12772;49.794;10.024;2023-01-15T13:48:55;6.90;60.70
24636;DHT22;12772;49.794;10.024;2023-01-15T13:53:16;7.40;60.70
24636;DHT22;12772;49.794;10.024;2023-01-15T13:57:24;7.30;60.90
24636;DHT22;12772;49.794;10.024;2023-01-15T14:05:35;7.60;62.00
24636;DHT22;12772;49.794;10.024;2023-01-15T14:09:37;7.50;61.40
24636;DHT22;12772;49.794;10.024;2023-01-15T14:26:29;7.50;61.20
24636;DHT22;12772;49.794;10.024;2023-01-15T14:34:39;7.00;59.90
24636;DHT22;12772;49.794;10.024;2023-01-15T14:38:48;7.20;60.30
24636;DHT22;12772;49.794;10.024;2023-01-15T14:42:53;7.50;60.50
24636;DHT22;12772;49.794;10.024;2023-01-15T14:47:03;7.50;60.70
24636;DHT22;12772;49.794;10.024;2023-01-15T14:51:27;7.10;60.30
24636;DHT22;12772;49.794;10.024;2023-01-15T14:55:31;7.40;60.10
24636;DHT22;12772;49.794;10.024;2023-01-15T14:59:45;7.40;60.10
24636;DHT22;12772;49.794;10.024;2023-01-15T15:03:56;6.90;59.70
24636;DHT22;12772;49.794;10.024;2023-01-15T15:07:59;7.60;59.80
24636;DHT22;12772;49.794;10.024;2023-01-15T15:16:27;7.60;59.40
24636;DHT22;12772;49.794;10.024;2023-01-15T15:24:53;7.40;59.10
24636;DHT22;12772;49.794;10.024;2023-01-15T15:33:19;7.40;58.70
24636;DHT22;12772;49.794;10.024;2023-01-15T15:37:24;7.00;58.60
24636;DHT22;12772;49.794;10.024;2023-01-15T15:41:31;7.00;58.70
24636;DHT22;12772;49.794;10.024;2023-01-15T15:45:53;7.30;58.80
24636;DHT22;12772;49.794;10.024;2023-01-15T15:50:33;7.40;58.40
24636;DHT22;12772;49.794;10.024;2023-01-15T15:54:35;7.30;58.20
24636;DHT22;12772;49.794;10.024;2023-01-15T15:58:37;7.10;57.50
24636;DHT22;12772;49.794;10.024;2023-01-15T16:02:40;7.30;57.70
24636;DHT22;12772;49.794;10.024;2023-01-15T16:06:43;7.00;57.30
24636;DHT22;12772;49.794;10.024;2023-01-15T16:10:51;7.30;57.30
24636;DHT22;12772;49.794;10.024;2023-01-15T16:14:54;7.20;57.30
24636;DHT22;12772;49.794;10.024;2023-01-15T16:18:59;7.00;57.10
24636;DHT22;12772;49.794;10.024;2023-01-15T16:23:03;7.20;57.20
24636;DHT22;12772;49.794;10.024;2023-01-15T16:27:07;7.30;57.10
24636;DHT22;12772;49.794;10.024;2023-01-15T16:31:17;7.20;57.20
24636;DHT22;12772;49.794;10.024;2023-01-15T16:35:23;6.80;56.50
24636;DHT22;12772;49.794;10.024;2023-01-15T16:39:38;7.10;56.80
24636;DHT22;12772;49.794;10.024;2023-01-15T16:43:56;6.70;56.30
24636;DHT22;12772;49.794;10.024;2023-01-15T16:52:49;7.10;56.80
24636;DHT22;12772;49.794;10.024;2023-01-15T16:56:52;7.00;56.40
24636;DHT22;12772;49.794;10.024;2023-01-15T17:00:55;7.10;56.60
24636;DHT22;12772;49.794;10.024;2023-01-15T17:04:58;7.00;56.40
24636;DHT22;12772;49.794;10.024;2023-01-15T17:09:00;7.10;56.50
24636;DHT22;12772;49.794;10.024;2023-01-15T17:13:02;7.00;56.50
24636;DHT22;12772;49.794;10.024;2023-01-15T17:21:24;6.70;55.80
24636;DHT22;12772;49.794;10.024;2023-01-15T17:25:32;7.10;55.90
24636;DHT22;12772;49.794;10.024;2023-01-15T17:29:34;6.80;55.10
24636;DHT22;12772;49.794;10.024;2023-01-15T17:33:36;6.70;55.20
24636;DHT22;12772;49.794;10.024;2023-01-15T17:37:39;7.00;55.90
24636;DHT22;12772;49.794;10.024;2023-01-15T17:41:41;7.00;56.00
24636;DHT22;12772;49.794;10.024;2023-01-15T17:45:43;6.90;56.50
24636;DHT22;12772;49.794;10.024;2023-01-15T17:49:45;6.80;56.60
24636;DHT22;12772;49.794;10.024;2023-01-15T17:53:47;6.90;56.60
24636;DHT22;12772;49.794;10.024;2023-01-15T17:57:49;6.70;56.50
24636;DHT22;12772;49.794;10.024;2023-01-15T18:02:12;7.00;56.20
24636;DHT22;12772;49.794;10.024;2023-01-15T18:06:33;7.00;56.40
24636;DHT22;12772;49.794;10.024;2023-01-15T18:10:35;6.60;55.40
24636;DHT22;12772;49.794;10.024;2023-01-15T18:14:37;6.60;55.30
24636;DHT22;12772;49.794;10.024;2023-01-15T18:18:39;7.00;55.60
24636;DHT22;12772;49.794;10.024;2023-01-15T18:22:41;7.10;55.60
24636;DHT22;12772;49.794;10.024;2023-01-15T18:26:44;7.00;55.00
24636;DHT22;12772;49.794;10.024;2023-01-15T18:30:46;7.10;55.20
24636;DHT22;12772;49.794;10.024;2023-01-15T18:34:49;6.80;54.80
24636;DHT22;12772;49.794;10.024;2023-01-15T18:38:51;7.30;55.30
24636;DHT22;12772;49.794;10.024;2023-01-15T18:42:53;7.30;55.30
24636;DHT22;12772;49.794;10.024;2023-01-15T18:47:14;7.10;54.40
24636;DHT22;12772;49.794;10.024;2023-01-15T18:51:17;7.10;54.60
24636;DHT22;12772;49.794;10.024;2023-01-15T18:55:21;7.30;53.80
24636;DHT22;12772;49.794;10.024;2023-01-15T18:59:24;6.50;53.10
24636;DHT22;12772;49.794;10.024;2023-01-15T19:03:26;7.00;54.00
24636;DHT22;12772;49.794;10.024;2023-01-15T19:07:28;6.60;53.20
24636;DHT22;12772;49.794;10.024;2023-01-15T19:11:30;6.60;52.70
24636;DHT22;12772;49.794;10.024;2023-01-15T19:15:32;7.00;52.80
24636;DHT22;12772;49.794;10.024;2023-01-15T19:19:52;6.80;52.40
24636;DHT22;12772;49.794;10.024;2023-01-15T19:23:54;6.80;52.60
24636;DHT22;12772;49.794;10.024;2023-01-15T19:27:56;7.10;52.30
24636;DHT22;12772;49.794;10.024;2023-01-15T19:31:58;6.90;52.20
24636;DHT22;12772;49.794;10.024;2023-01-15T19:36:04;7.20;52.50
24636;DHT22;12772;49.794;10.024;2023-01-15T19:40:11;7.10;52.00
24636;DHT22;12772;49.794;10.024;2023-01-15T19:44:14;7.10;51.80
24636;DHT22;12772;49.794;10.024;2023-01-15T19:48:34;7.00;51.80
24636;DHT22;12772;49.794;10.024;2023-01-15T19:52:54;6.90;52.00
24636;DHT22;12772;49.794;10.024;2023-01-15T19:56:56;7.00;52.00
24636;DHT22;12772;49.794;10.024;2023-01-15T20:00:59;6.90;52.20
24636;DHT22;12772;49.794;10.024;2023-01-15T20:05:02;6.40;51.50
24636;DHT22;12772;49.794;10.024;2023-01-15T20:09:04;7.00;52.10
24636;DHT22;12772;49.794;10.024;2023-01-15T20:13:17;6.60;51.80
24636;DHT22;12772;49.794;10.024;2023-01-15T20:17:37;6.60;51.60
24636;DHT22;12772;49.794;10.024;2023-01-15T20:21:39;6.90;51.80
24636;DHT22;12772;49.794;10.024;2023-01-15T20:25:41;6.60;51.70
24636;DHT22;12772;49.794;10.024;2023-01-15T20:29:47;6.40;51.40
24636;DHT22;12772;49.794;10.024;2023-01-15T20:33:49;6.80;52.20
24636;DHT22;12772;49.794;10.024;2023-01-15T20:37:51;6.90;52.00
24636;DHT22;12772;49.794;10.024;2023-01-15T20:41:53;6.80;52.00
24636;DHT22;12772;49.794;10.024;2023-01-15T20:46:13;6.70;51.80
24636;DHT22;12772;49.794;10.024;2023-01-15T20:50:18;6.40;51.40
24636;DHT22;12772;49.794;10.024;2023-01-15T20:54:22;6.80;51.90
24636;DHT22;12772;49.794;10.024;2023-01-15T20:58:24;6.30;51.40
24636;DHT22;12772;49.794;10.024;2023-01-15T21:02:26;6.70;51.60
24636;DHT22;12772;49.794;10.024;2023-01-15T21:06:28;6.70;51.50
24636;DHT22;12772;49.794;10.024;2023-01-15T21:10:30;6.20;51.20
24636;DHT22;12772;49.794;10.024;2023-01-15T21:14:32;6.60;51.40
24636;DHT22;12772;49.794;10.024;2023-01-15T21:18:34;6.60;51.30
24636;DHT22;12772;49.794;10.024;2023-01-15T21:22:37;6.50;51.30
24636;DHT22;12772;49.794;10.024;2023-01-15T21:26:39;6.50;51.40
24636;DHT22;12772;49.794;10.024;2023-01-15T21:30:42;6.10;51.20
24636;DHT22;12772;49.794;10.024;2023-01-15T21:34:45;6.20;51.30
24636;DHT22;12772;49.794;10.024;2023-01-15T21:38:51;6.40;51.70
24636;DHT22;12772;49.794;10.024;2023-01-15T21:42:54;6.10;51.20
24636;DHT22;12772;49.794;10.024;2023-01-15T21:47:17;6.50;51.60
24636;DHT22;12772;49.794;10.024;2023-01-15T21:51:20;5.90;51.10
24636;DHT22;12772;49.794;10.024;2023-01-15T21:55:22;6.30;51.80
24636;DHT22;12772;49.794;10.024;2023-01-15T21:59:24;6.30;51.80
24636;DHT22;12772;49.794;10.024;2023-01-15T22:03:26;6.10;51.60
24636;DHT22;12772;49.794;10.024;2023-01-15T22:07:28;6.40;51.80
24636;DHT22;12772;49.794;10.024;2023-01-15T22:11:30;5.80;51.20
24636;DHT22;12772;49.794;10.024;2023-01-15T22:15:52;6.20;51.70
24636;DHT22;12772;49.794;10.024;2023-01-15T22:19:54;5.90;51.50
24636;DHT22;12772;49.794;10.024;2023-01-15T22:23:56;6.00;51.90
24636;DHT22;12772;49.794;10.024;2023-01-15T22:27:58;6.10;52.30
24636;DHT22;12772;49.794;10.024;2023-01-15T22:32:00;5.60;51.90
24636;DHT22;12772;49.794;10.024;2023-01-15T22:36:03;5.80;52.40
24636;DHT22;12772;49.794;10.024;2023-01-15T22:40:06;5.80;52.60
24636;DHT22;12772;49.794;10.024;2023-01-15T22:44:09;5.60;52.60
24636;DHT22;12772;49.794;10.024;2023-01-15T22:48:11;5.80;53.20
24636;DHT22;12772;49.794;10.024;2023-01-15T22:52:13;5.90;53.50
24636;DHT22;12772;49.794;10.024;2023-01-15T22:56:15;5.90;53.40
24636;DHT22;12772;49.794;10.024;2023-01-15T23:00:17;5.80;53.20
24636;DHT22;12772;49.794;10.024;2023-01-15T23:04:21;6.00;53.50
24636;DHT22;12772;49.794;10.024;2023-01-15T23:08:24;5.90;53.30
24636;DHT22;12772;49.794;10.024;2023-01-15T23:12:32;5.60;53.30
24636;DHT22;12772;49.794;10.024;2023-01-15T23:16:34;6.20;53.60
24636;DHT22;12772;49.794;10.024;2023-01-15T23:20:36;5.70;52.70
24636;DHT22;12772;49.794;10.024;2023-01-15T23:24:38;6.00;52.90
24636;DHT22;12772;49.794;10.024;2023-01-15T23:28:40;6.10;52.60
24636;DHT22;12772;49.794;10.024;2023-01-15T23:32:42;5.90;52.50
24636;DHT22;12772;49.794;10.024;2023-01-15T23:36:44;6.00;52.80
24636;DHT22;12772;49.794;10.024;2023-01-15T23:40:47;5.80;52.80
24636;DHT22;12772;49.794;10.024;2023-01-15T23:44:49;6.10;53.00
24636;DHT22;12772;49.794;10.024;2023-01-15T23:49:10;5.60;52.60
24636;DHT22;12772;49.794;10.024;2023-01-15T23:53:12;6.00;53.10
24636;DHT22;12772;49.794;10.024;2023-01-15T23:57:15;5.70;52.60
